Time;durP1;ratioP1;P1;durP2;ratioP2;P2;SDS_P1;SDS_P2;PMS_P1;PMS_P2;Temp;Humidity;BMP_temperature;BMP_pressure;BME280_temperature;BME280_humidity;BME280_pressure;Samples;Min_cycle;Max_cycle;Signal;HPM_P1;HPM_P2
2022/12/20 00:00:41;;;;;;;;;;;;;;;7.52;100.00;101219.53;5035869;28;19921;-76
2022/12/20 00:03:07;;;;;;;;;;;;;;;7.52;100.00;101219.53;5031994;28;19915;-76
2022/12/20 00:05:35;;;;;;;;;;;;;;;7.52;100.00;101216.94;5056474;28;19908;-76
2022/12/20 00:08:00;;;;;;;;;;;;;;;7.54;100.00;101225.56;5057108;28;20220;-76
2022/12/20 00:10:25;;;;;;;;;;;;;;;7.53;100.00;101216.91;5056489;28;19920;-76
2022/12/20 00:12:51;;;;;;;;;;;;;;;7.55;100.00;101212.50;5048407;28;19936;-76
2022/12/20 00:15:16;;;;;;;;;;;;;;;7.56;100.00;101218.56;5024433;28;19997;-76
2022/12/20 00:17:41;;;;;;;;;;;;;;;7.56;100.00;101229.00;5026540;28;19924;-76
2022/12/20 00:20:07;;;;;;;;;;;;;;;7.56;100.00;101223.78;5033512;28;19917;-76
2022/12/20 00:22:32;;;;;;;;;;;;;;;7.57;100.00;101230.72;5024460;28;19995;-76
2022/12/20 00:24:57;;;;;;;;;;;;;;;7.56;100.00;101227.25;5027602;28;19962;-76
2022/12/20 00:27:23;;;;;;;;;;;;;;;7.57;100.00;101222.91;5056361;28;20107;-76
2022/12/20 00:29:48;;;;;;;;;;;;;;;7.58;100.00;101225.47;5056141;28;19958;-76
2022/12/20 00:32:13;;;;;;;;;;;;;;;7.59;100.00;101219.38;5052227;28;20056;-76
2022/12/20 00:34:38;;;;;;;;;;;;;;;7.59;100.00;101218.50;5036792;28;19971;-76
2022/12/20 00:37:04;;;;;;;;;;;;;;;7.60;100.00;101215.00;5037413;28;20050;-76
2022/12/20 00:39:29;;;;;;;;;;;;;;;7.61;100.00;101208.91;5031629;28;19913;-76
2022/12/20 00:41:54;;;;;;;;;;;;;;;7.61;100.00;101195.88;5034711;28;20164;-76
2022/12/20 00:44:20;;;;;;;;;;;;;;;7.61;100.00;101199.34;5041114;28;19924;-76
2022/12/20 00:46:45;;;;;;;;;;;;;;;7.63;100.00;101191.47;5056218;28;19921;-76
2022/12/20 00:49:10;;;;;;;;;;;;;;;7.62;100.00;101200.19;5047791;28;19925;-76
2022/12/20 00:51:35;;;;;;;;;;;;;;;7.63;100.00;101183.66;5030760;28;20258;-76
2022/12/20 00:54:01;;;;;;;;;;;;;;;7.63;100.00;101176.69;5033201;28;19943;-76
2022/12/20 00:56:26;;;;;;;;;;;;;;;7.64;100.00;101174.94;5036367;28;20418;-76
2022/12/20 00:58:52;;;;;;;;;;;;;;;7.65;100.00;101168.84;5029412;28;19929;-76
2022/12/20 01:01:23;;;;;;;;;;;;;;;7.64;100.00;101162.78;5029090;28;19926;-76
2022/12/20 01:03:49;;;;;;;;;;;;;;;7.65;100.00;101153.19;5032647;28;19921;-76
2022/12/20 01:06:15;;;;;;;;;;;;;;;7.65;100.00;101143.63;5044527;28;19942;-76
2022/12/20 01:08:41;;;;;;;;;;;;;;;7.66;100.00;101153.16;5055755;28;19921;-76
2022/12/20 01:11:08;;;;;;;;;;;;;;;7.67;100.00;101156.63;5042109;28;19916;-76
2022/12/20 01:13:34;;;;;;;;;;;;;;;7.66;100.00;101155.78;5035067;28;19975;-76
2022/12/20 01:16:07;;;;;;;;;;;;;;;7.68;100.00;101155.75;5036940;28;19959;-76
2022/12/20 01:18:32;;;;;;;;;;;;;;;7.68;100.00;101142.72;5035395;28;19928;-76
2022/12/20 01:21:05;;;;;;;;;;;;;;;7.68;100.00;101148.78;5037511;28;19917;-76
2022/12/20 01:23:30;;;;;;;;;;;;;;;7.69;100.00;101144.41;5052063;28;19923;-76
2022/12/20 01:25:56;;;;;;;;;;;;;;;7.70;100.00;101148.75;5055417;28;20148;-76
2022/12/20 01:28:22;;;;;;;;;;;;;;;7.71;100.00;101152.19;5042056;28;19909;-76
2022/12/20 01:30:47;;;;;;;;;;;;;;;7.71;100.00;101144.38;5036582;28;19921;-76
2022/12/20 01:33:12;;;;;;;;;;;;;;;7.72;100.00;101140.88;5048895;28;19921;-76
2022/12/20 01:35:38;;;;;;;;;;;;;;;7.72;100.00;101154.78;5057754;28;19995;-76
2022/12/20 01:38:03;;;;;;;;;;;;;;;7.72;100.00;101139.13;5060137;28;19925;-76
2022/12/20 01:40:28;;;;;;;;;;;;;;;7.73;100.00;101120.00;5058299;28;19920;-76
2022/12/20 01:42:53;;;;;;;;;;;;;;;7.73;100.00;101119.13;5059586;28;20031;-76
2022/12/20 01:45:24;;;;;;;;;;;;;;;7.74;100.00;101115.63;5059257;28;19917;-76
2022/12/20 01:47:49;;;;;;;;;;;;;;;7.74;100.00;101118.22;5059643;28;19959;-76
2022/12/20 01:50:15;;;;;;;;;;;;;;;7.74;100.00;101119.09;5059897;28;19984;-76
2022/12/20 01:52:42;;;;;;;;;;;;;;;7.74;100.00;101121.69;5053071;28;20124;-76
2022/12/20 01:55:13;;;;;;;;;;;;;;;7.74;100.00;101126.91;5038688;28;20066;-76
2022/12/20 01:57:44;;;;;;;;;;;;;;;7.73;100.00;101112.19;5039671;28;19921;-76
2022/12/20 02:00:10;;;;;;;;;;;;;;;7.74;100.00;101121.69;5054519;28;19988;-76
2022/12/20 02:02:36;;;;;;;;;;;;;;;7.74;100.00;101123.44;5019761;28;20656;-76
2022/12/20 02:05:01;;;;;;;;;;;;;;;7.73;100.00;101125.22;5026322;28;19913;-76
2022/12/20 02:07:29;;;;;;;;;;;;;;;7.73;100.00;101116.50;5023977;28;19913;-76
2022/12/20 02:09:56;;;;;;;;;;;;;;;7.73;100.00;101124.34;5020716;28;20337;-76
2022/12/20 02:12:25;;;;;;;;;;;;;;;7.72;100.00;101136.50;5020577;28;19992;-76
2022/12/20 02:15:13;;;;;;;;;;;;;;;7.73;100.00;101122.59;5028530;28;20101;-76
2022/12/20 02:17:57;;;;;;;;;;;;;;;7.73;100.00;101124.34;5017253;28;19913;-76
2022/12/20 02:20:31;;;;;;;;;;;;;;;7.73;100.00;101135.63;5030639;28;19960;-76
2022/12/20 02:23:15;;;;;;;;;;;;;;;7.74;100.00;101144.31;5019569;28;20155;-76
2022/12/20 02:25:57;;;;;;;;;;;;;;;7.73;100.00;101117.38;5037587;28;20212;-76
2022/12/20 02:28:22;;;;;;;;;;;;;;;7.74;100.00;101121.69;5039348;28;20093;-76
2022/12/20 02:30:51;;;;;;;;;;;;;;;7.73;100.00;101130.44;5057208;28;19928;-76
2022/12/20 02:33:18;;;;;;;;;;;;;;;7.73;100.00;101111.28;5059138;28;20216;-76
2022/12/20 02:35:43;;;;;;;;;;;;;;;7.74;100.00;101113.88;5056393;28;19912;-76
2022/12/20 02:38:27;;;;;;;;;;;;;;;7.74;100.00;101118.22;5039212;28;20357;-76
2022/12/20 02:41:03;;;;;;;;;;;;;;;7.73;100.00;101099.13;5038833;28;19917;-76
2022/12/20 02:46:15;;;;;;;;;;;;;;;7.74;100.00;101090.41;5038596;28;19940;-76
2022/12/20 02:48:41;;;;;;;;;;;;;;;7.75;100.00;101091.25;5039264;28;20169;-76
2022/12/20 02:51:07;;;;;;;;;;;;;;;7.75;100.00;101092.13;5039245;28;19917;-76
2022/12/20 02:53:33;;;;;;;;;;;;;;;7.76;100.00;101090.38;5037197;28;19920;-76
2022/12/20 02:56:12;;;;;;;;;;;;;;;7.76;100.00;101087.75;5038931;28;20115;-76
2022/12/20 02:58:58;;;;;;;;;;;;;;;7.76;100.00;101086.00;5038846;28;20108;-76
2022/12/20 03:01:27;;;;;;;;;;;;;;;7.76;100.00;101078.19;5058529;28;19917;-76
2022/12/20 03:03:53;;;;;;;;;;;;;;;7.77;100.00;101087.72;5058867;28;20133;-76
2022/12/20 03:06:19;;;;;;;;;;;;;;;7.78;100.00;101094.63;5057529;28;19956;-76
2022/12/20 03:08:45;;;;;;;;;;;;;;;7.79;100.00;101095.53;5057289;28;19968;-76
2022/12/20 03:11:10;;;;;;;;;;;;;;;7.79;100.00;101085.94;5058690;28;19919;-76
2022/12/20 03:13:36;;;;;;;;;;;;;;;7.80;100.00;101089.41;5045677;28;20262;-76
2022/12/20 03:16:01;;;;;;;;;;;;;;;7.81;100.00;101083.28;5038482;28;19955;-76
2022/12/20 03:18:26;;;;;;;;;;;;;;;7.82;100.00;101079.78;5035741;28;19963;-76
2022/12/20 03:20:52;;;;;;;;;;;;;;;7.82;100.00;101080.66;5031906;28;19995;-76
2022/12/20 03:23:17;;;;;;;;;;;;;;;7.83;100.00;101084.97;5037210;28;19921;-76
2022/12/20 03:25:42;;;;;;;;;;;;;;;7.84;100.00;101084.06;5026901;28;19921;-76
2022/12/20 03:28:07;;;;;;;;;;;;;;;7.85;100.00;101079.72;5018405;28;19921;-76
2022/12/20 03:30:33;;;;;;;;;;;;;;;7.85;100.00;101085.78;5037430;28;20000;-76
2022/12/20 03:32:58;;;;;;;;;;;;;;;7.88;100.00;101080.50;5026888;28;20256;-76
2022/12/20 03:35:23;;;;;;;;;;;;;;;7.90;100.00;101088.28;5018233;28;20001;-76
2022/12/20 03:37:49;;;;;;;;;;;;;;;7.90;100.00;101080.44;5036359;28;19996;-76
2022/12/20 03:40:14;;;;;;;;;;;;;;;7.92;100.00;101075.19;5037891;28;19913;-76
2022/12/20 03:42:40;;;;;;;;;;;;;;;7.93;100.00;101074.28;5037689;28;19921;-76
2022/12/20 03:45:05;;;;;;;;;;;;;;;7.95;100.00;101077.72;5038323;28;20000;-76
2022/12/20 03:47:30;;;;;;;;;;;;;;;7.96;100.00;101084.66;5038630;28;19921;-76
2022/12/20 03:49:56;;;;;;;;;;;;;;;7.97;100.00;101094.19;5020219;28;19949;-76
2022/12/20 03:52:21;;;;;;;;;;;;;;;7.99;100.00;101097.63;5018331;28;19960;-76
2022/12/20 03:54:47;;;;;;;;;;;;;;;7.99;100.00;101097.63;5017578;28;19921;-76
2022/12/20 03:57:12;;;;;;;;;;;;;;;7.99;100.00;101090.66;5017801;28;19932;-76
2022/12/20 03:59:37;;;;;;;;;;;;;;;8.01;100.00;101077.56;5031641;28;19912;-76
2022/12/20 04:02:03;;;;;;;;;;;;;;;8.03;100.00;101083.59;5058070;28;20236;-74
2022/12/20 04:04:28;;;;;;;;;;;;;;;8.03;100.00;101073.16;5057797;28;19917;-74
2022/12/20 04:06:53;;;;;;;;;;;;;;;8.05;100.00;101082.66;5057541;28;19917;-74
2022/12/20 04:09:19;;;;;;;;;;;;;;;8.05;100.00;101080.03;5050681;28;19928;-74
2022/12/20 04:11:44;;;;;;;;;;;;;;;8.06;100.00;101079.16;5037110;28;20006;-74
2022/12/20 04:14:09;;;;;;;;;;;;;;;8.07;100.00;101067.81;5037692;28;19921;-74
2022/12/20 04:16:34;;;;;;;;;;;;;;;8.08;100.00;101077.34;5037609;28;19920;-74
2022/12/20 04:19:00;;;;;;;;;;;;;;;8.07;100.00;101070.41;5037799;28;19924;-74
2022/12/20 04:21:27;;;;;;;;;;;;;;;8.09;100.00;101080.81;5037774;28;19929;-74
2022/12/20 04:23:52;;;;;;;;;;;;;;;8.09;100.00;101075.59;5037244;28;19917;-74
2022/12/20 04:26:18;;;;;;;;;;;;;;;8.10;100.00;101074.72;5020937;28;20219;-74
2022/12/20 04:28:43;;;;;;;;;;;;;;;8.11;100.00;101089.44;5019503;28;19918;-74
2022/12/20 04:31:09;;;;;;;;;;;;;;;8.11;100.00;101072.94;5057446;28;19921;-74
2022/12/20 04:33:34;;;;;;;;;;;;;;;8.12;100.00;101065.09;5056906;28;19919;-74
2022/12/20 04:35:59;;;;;;;;;;;;;;;8.13;100.00;101071.16;5017935;28;19980;-74
2022/12/20 04:38:25;;;;;;;;;;;;;;;8.13;100.00;101059.00;5017752;28;20010;-74
2022/12/20 04:40:51;;;;;;;;;;;;;;;8.14;100.00;101052.00;5017321;28;20191;-74
2022/12/20 04:43:17;;;;;;;;;;;;;;;8.14;100.00;101039.81;5017325;28;19910;-74
2022/12/20 04:45:43;;;;;;;;;;;;;;;8.14;100.00;101042.41;5017562;28;20243;-74
2022/12/20 04:48:08;;;;;;;;;;;;;;;8.14;100.00;101032.00;5017540;28;20195;-74
2022/12/20 04:50:33;;;;;;;;;;;;;;;8.16;100.00;101037.16;5017263;28;20283;-73
2022/12/20 04:55:42;;;;;;;;;;;;;;;8.17;100.00;101023.25;5017056;28;19986;-74
2022/12/20 04:58:08;;;;;;;;;;;;;;;8.17;100.00;101023.25;5017286;28;19917;-74
2022/12/20 05:00:33;;;;;;;;;;;;;;;8.17;100.00;101015.41;5048528;28;20146;-74
2022/12/20 05:02:58;;;;;;;;;;;;;;;8.17;100.00;101016.25;5057129;28;19974;-74
2022/12/20 05:05:24;;;;;;;;;;;;;;;8.18;100.00;101012.72;5056875;28;19940;-74
2022/12/20 05:07:50;;;;;;;;;;;;;;;8.20;100.00;100991.81;5056594;28;19912;-74
2022/12/20 05:10:15;;;;;;;;;;;;;;;8.19;100.00;101001.41;5058492;28;19921;-74
2022/12/20 05:12:41;;;;;;;;;;;;;;;8.19;100.00;100995.34;5060410;28;20170;-74
2022/12/20 05:15:06;;;;;;;;;;;;;;;8.19;100.00;100998.81;5061225;28;19924;-74
2022/12/20 05:17:32;;;;;;;;;;;;;;;8.21;100.00;100999.63;5060849;28;19948;-74
2022/12/20 05:19:57;;;;;;;;;;;;;;;8.21;100.00;100993.56;5060840;28;19959;-74
2022/12/20 05:28:02;;;;;;;;;;;;;;;8.23;100.00;100997.81;5003919;28;19917;-73
2022/12/20 05:30:28;;;;;;;;;;;;;;;8.24;100.00;100996.94;5055961;28;19921;-74
2022/12/20 05:32:56;;;;;;;;;;;;;;;8.26;100.00;101002.94;5055536;28;19952;-74
2022/12/20 05:35:21;;;;;;;;;;;;;;;8.27;100.00;101001.19;5026732;28;20222;-74
2022/12/20 05:37:46;;;;;;;;;;;;;;;8.26;100.00;101008.16;5026747;28;19929;-74
2022/12/20 05:40:11;;;;;;;;;;;;;;;8.26;100.00;101002.94;5020623;28;20071;-74
2022/12/20 05:42:37;;;;;;;;;;;;;;;8.27;100.00;100991.59;5040062;28;19967;-74
2022/12/20 05:45:03;;;;;;;;;;;;;;;8.27;100.00;100991.59;5040660;28;19921;-74
2022/12/20 05:47:32;;;;;;;;;;;;;;;8.28;100.00;100989.88;5039100;28;20216;-74
2022/12/20 05:49:57;;;;;;;;;;;;;;;8.28;100.00;100976.81;5040300;28;19928;-74
2022/12/20 05:52:23;;;;;;;;;;;;;;;8.29;100.00;100969.84;5040159;28;20140;-74
2022/12/20 05:54:48;;;;;;;;;;;;;;;8.30;100.00;100980.25;5020202;28;19925;-74
2022/12/20 05:57:14;;;;;;;;;;;;;;;8.30;100.00;100977.63;5019459;28;20240;-74
2022/12/20 05:59:40;;;;;;;;;;;;;;;8.31;100.00;100978.47;5035885;28;19917;-74
2022/12/20 06:02:05;;;;;;;;;;;;;;;8.30;100.00;100975.03;5060384;28;19951;-74
2022/12/20 06:04:31;;;;;;;;;;;;;;;8.31;100.00;100979.31;5060089;28;19927;-74
2022/12/20 06:06:56;;;;;;;;;;;;;;;8.32;100.00;100980.19;5059753;28;19947;-74
2022/12/20 06:09:21;;;;;;;;;;;;;;;8.32;100.00;100974.97;5059752;28;19943;-74
2022/12/20 06:11:46;;;;;;;;;;;;;;;8.31;100.00;100968.88;5058181;28;20200;-74
2022/12/20 06:14:12;;;;;;;;;;;;;;;8.33;100.00;100974.06;5060013;28;19952;-74
2022/12/20 06:16:37;;;;;;;;;;;;;;;8.33;100.00;100974.94;5060096;28;19923;-74
2022/12/20 06:19:02;;;;;;;;;;;;;;;8.34;100.00;100978.41;5047709;28;19924;-74
2022/12/20 06:21:28;;;;;;;;;;;;;;;8.33;100.00;100968.84;5029638;28;19933;-74
2022/12/20 06:23:53;;;;;;;;;;;;;;;8.33;100.00;100961.88;5026562;28;19931;-74
2022/12/20 06:26:19;;;;;;;;;;;;;;;8.34;100.00;100970.56;5035989;28;19925;-74
2022/12/20 06:28:45;;;;;;;;;;;;;;;8.34;100.00;100967.97;5033440;28;19925;-74
2022/12/20 06:31:10;;;;;;;;;;;;;;;8.34;100.00;100967.97;5048623;28;20294;-74
2022/12/20 06:33:35;;;;;;;;;;;;;;;8.35;100.00;100974.88;5034198;28;19934;-74
2022/12/20 06:36:01;;;;;;;;;;;;;;;8.35;100.00;100977.47;5039623;28;19921;-74
2022/12/20 06:38:26;;;;;;;;;;;;;;;8.35;100.00;100974.88;5023240;28;19921;-74
2022/12/20 06:40:51;;;;;;;;;;;;;;;8.34;100.00;100971.41;5019334;28;19968;-74
2022/12/20 06:43:17;;;;;;;;;;;;;;;8.36;100.00;100968.75;5019310;28;19952;-74
2022/12/20 06:45:42;;;;;;;;;;;;;;;8.36;100.00;100964.38;5020545;28;19922;-74
2022/12/20 06:48:07;;;;;;;;;;;;;;;8.36;100.00;100968.75;5039199;28;19992;-74
2022/12/20 06:50:33;;;;;;;;;;;;;;;8.37;100.00;100962.66;5038975;28;20213;-74
2022/12/20 06:52:58;;;;;;;;;;;;;;;8.36;100.00;100979.19;5039335;28;19929;-74
2022/12/20 06:55:24;;;;;;;;;;;;;;;8.36;100.00;100976.59;5038917;28;19933;-74
2022/12/20 06:57:49;;;;;;;;;;;;;;;8.38;100.00;100972.19;5038364;28;19925;-74
2022/12/20 07:00:15;;;;;;;;;;;;;;;8.37;100.00;100980.94;5051149;28;20298;-74
2022/12/20 07:02:40;;;;;;;;;;;;;;;8.36;100.00;100969.59;5058474;28;20101;-74
2022/12/20 07:05:06;;;;;;;;;;;;;;;8.37;100.00;100984.38;5058718;28;19976;-73
2022/12/20 07:07:31;;;;;;;;;;;;;;;8.37;100.00;100973.94;5059031;28;20183;-74
2022/12/20 07:09:56;;;;;;;;;;;;;;;8.38;100.00;100982.63;5058706;28;19921;-74
2022/12/20 07:12:22;;;;;;;;;;;;;;;8.39;100.00;100979.97;5058228;28;19936;-74
2022/12/20 07:14:47;;;;;;;;;;;;;;;8.40;100.00;100980.81;5058501;28;19932;-74
2022/12/20 07:17:13;;;;;;;;;;;;;;;8.41;100.00;100974.72;5043709;28;20157;-74
2022/12/20 07:19:38;;;;;;;;;;;;;;;8.42;100.00;100981.66;5038529;28;20089;-74
2022/12/20 07:22:04;;;;;;;;;;;;;;;8.43;100.00;100988.59;5038881;28;19913;-74
2022/12/20 07:24:30;;;;;;;;;;;;;;;8.44;100.00;100993.78;5039003;28;20241;-74
2022/12/20 07:26:55;;;;;;;;;;;;;;;8.45;100.00;100986.78;5037334;28;19967;-74
2022/12/20 07:29:21;;;;;;;;;;;;;;;8.46;100.00;100993.72;5044229;28;20219;-74
2022/12/20 07:31:46;;;;;;;;;;;;;;;8.46;100.00;100988.50;5058058;28;19921;-74
2022/12/20 07:34:11;;;;;;;;;;;;;;;8.46;100.00;100978.06;5045677;28;19925;-74
2022/12/20 07:36:36;;;;;;;;;;;;;;;8.46;100.00;100980.69;5030902;28;19963;-74
2022/12/20 07:39:04;;;;;;;;;;;;;;;8.48;100.00;100991.94;5034161;28;20412;-74
2022/12/20 07:41:29;;;;;;;;;;;;;;;8.47;100.00;100984.13;5029171;28;19924;-74
2022/12/20 07:43:57;;;;;;;;;;;;;;;8.47;100.00;100986.75;5037329;28;20104;-74
2022/12/20 07:46:22;;;;;;;;;;;;;;;8.46;100.00;100983.28;5032957;28;19967;-74
2022/12/20 07:48:47;;;;;;;;;;;;;;;8.46;100.00;100975.47;5029685;28;19917;-74
2022/12/20 07:51:36;;;;;;;;;;;;;;;8.46;100.00;100980.69;5033333;28;20204;-74
2022/12/20 07:54:10;;;;;;;;;;;;;;;8.46;100.00;100980.69;5021268;28;19925;-74
2022/12/20 07:56:38;;;;;;;;;;;;;;;8.47;100.00;100981.53;5022499;28;19992;-74
2022/12/20 07:59:04;;;;;;;;;;;;;;;8.45;100.00;100981.56;5036978;28;19923;-74
2022/12/20 08:01:30;;;;;;;;;;;;;;;8.46;100.00;100993.72;5023748;28;19928;-74
2022/12/20 08:04:01;;;;;;;;;;;;;;;8.45;100.00;100986.78;5035248;28;19920;-74
2022/12/20 08:06:26;;;;;;;;;;;;;;;8.43;100.00;100983.38;5032452;28;19914;-74
2022/12/20 08:08:56;;;;;;;;;;;;;;;8.44;100.00;100985.94;5017546;28;19932;-74
2022/12/20 08:11:22;;;;;;;;;;;;;;;8.43;100.00;100981.59;5020921;28;19928;-74
2022/12/20 08:13:48;;;;;;;;;;;;;;;8.43;100.00;100980.75;5030019;28;19917;-74
2022/12/20 08:16:13;;;;;;;;;;;;;;;8.42;100.00;100982.53;5043201;28;19970;-74
2022/12/20 08:18:39;;;;;;;;;;;;;;;8.43;100.00;100983.38;5035444;28;19925;-74
2022/12/20 08:21:04;;;;;;;;;;;;;;;8.42;100.00;100985.13;5035100;28;19940;-74
2022/12/20 08:23:29;;;;;;;;;;;;;;;8.41;100.00;100978.16;5041975;28;19925;-74
2022/12/20 08:25:54;;;;;;;;;;;;;;;8.41;100.00;100972.09;5035244;28;20235;-74
2022/12/20 08:28:20;;;;;;;;;;;;;;;8.40;100.00;100981.69;5020926;28;20175;-74
2022/12/20 08:30:45;;;;;;;;;;;;;;;8.40;100.00;100970.38;5022303;28;20242;-74
2022/12/20 08:33:10;;;;;;;;;;;;;;;8.40;100.00;100975.59;5032026;28;19963;-74
2022/12/20 08:35:36;;;;;;;;;;;;;;;8.40;100.00;100973.88;5035239;28;19925;-74
2022/12/20 08:38:01;;;;;;;;;;;;;;;8.41;100.00;100972.09;5035212;28;20232;-74
2022/12/20 08:40:26;;;;;;;;;;;;;;;8.41;100.00;100982.53;5036559;28;20155;-74
2022/12/20 08:42:51;;;;;;;;;;;;;;;8.40;100.00;100981.69;5035812;28;20302;-74
2022/12/20 08:45:18;;;;;;;;;;;;;;;8.41;100.00;100979.94;5036171;28;20414;-74
2022/12/20 08:47:43;;;;;;;;;;;;;;;8.41;100.00;100980.78;5034524;28;19944;-74
2022/12/20 08:50:08;;;;;;;;;;;;;;;8.41;100.00;100983.38;5049193;28;19923;-74
2022/12/20 08:52:34;;;;;;;;;;;;;;;8.42;100.00;100984.25;5051280;28;20288;-74
2022/12/20 08:54:59;;;;;;;;;;;;;;;8.42;100.00;100985.13;5050830;28;19916;-74
2022/12/20 08:57:24;;;;;;;;;;;;;;;8.42;100.00;100989.47;5050996;28;19925;-74
2022/12/20 08:59:49;;;;;;;;;;;;;;;8.42;100.00;100982.53;5037724;28;19968;-74
2022/12/20 09:02:15;;;;;;;;;;;;;;;8.41;100.00;100979.94;5044114;28;19952;-74
2022/12/20 09:04:40;;;;;;;;;;;;;;;8.42;100.00;100986.88;5032623;28;20208;-74
2022/12/20 09:07:06;;;;;;;;;;;;;;;8.42;100.00;100985.13;5029832;28;19945;-74
2022/12/20 09:09:31;;;;;;;;;;;;;;;8.42;100.00;100992.97;5024306;28;19995;-74
2022/12/20 09:11:56;;;;;;;;;;;;;;;8.42;100.00;100997.31;5024498;28;19917;-74
2022/12/20 09:14:22;;;;;;;;;;;;;;;8.43;100.00;100996.44;5026979;28;19921;-74
2022/12/20 09:16:48;;;;;;;;;;;;;;;8.43;100.00;100993.81;5035280;28;19928;-74
2022/12/20 09:19:15;;;;;;;;;;;;;;;8.44;100.00;100990.28;5034564;28;20291;-74
2022/12/20 09:21:40;;;;;;;;;;;;;;;8.43;100.00;100980.75;5031388;28;20111;-74
2022/12/20 09:24:06;;;;;;;;;;;;;;;8.44;100.00;100995.50;5027379;28;19930;-74
2022/12/20 09:26:31;;;;;;;;;;;;;;;8.43;100.00;100993.81;5031084;28;20440;-74
2022/12/20 09:28:57;;;;;;;;;;;;;;;8.43;100.00;101001.66;5034104;28;19932;-74
2022/12/20 09:31:24;;;;;;;;;;;;;;;8.45;100.00;101002.44;5033519;28;20227;-74
2022/12/20 09:33:52;;;;;;;;;;;;;;;8.45;100.00;100984.19;5034984;28;19940;-74
2022/12/20 09:36:18;;;;;;;;;;;;;;;8.45;100.00;100987.63;5028769;28;19924;-74
2022/12/20 09:38:44;;;;;;;;;;;;;;;8.45;100.00;100985.03;5033560;28;20207;-74
2022/12/20 09:41:28;;;;;;;;;;;;;;;8.45;100.00;100986.78;5035100;28;20138;-74
2022/12/20 09:43:54;;;;;;;;;;;;;;;8.46;100.00;100988.50;5033534;28;19959;-74
2022/12/20 09:46:23;;;;;;;;;;;;;;;8.47;100.00;100984.13;5027061;28;19913;-74
2022/12/20 09:48:49;;;;;;;;;;;;;;;8.46;100.00;100975.47;5029535;28;19929;-74
2022/12/20 09:51:14;;;;;;;;;;;;;;;8.47;100.00;100989.38;5031067;28;19955;-74
2022/12/20 09:53:39;;;;;;;;;;;;;;;8.47;100.00;100989.38;5036203;28;19921;-74
2022/12/20 09:56:09;;;;;;;;;;;;;;;8.48;100.00;100988.44;5047217;28;20224;-74
2022/12/20 09:58:56;;;;;;;;;;;;;;;8.48;100.00;100991.06;5037863;28;19921;-74
2022/12/20 10:01:23;;;;;;;;;;;;;;;8.47;100.00;100987.59;5025375;28;19928;-74
2022/12/20 10:03:49;;;;;;;;;;;;;;;8.47;100.00;100987.59;5031049;28;19917;-74
2022/12/20 10:06:23;;;;;;;;;;;;;;;8.47;100.00;100987.59;5031228;28;19955;-74
2022/12/20 10:08:48;;;;;;;;;;;;;;;8.48;100.00;100986.72;5025700;28;20106;-74
2022/12/20 10:11:23;;;;;;;;;;;;;;;8.49;100.00;100985.78;5029520;28;19945;-74
2022/12/20 10:14:24;;;;;;;;;;;;;;;8.48;100.00;100971.06;5042009;28;19928;-74
2022/12/20 10:17:02;;;;;;;;;;;;;;;8.49;100.00;100983.19;5015412;28;19925;-74
2022/12/20 10:19:36;;;;;;;;;;;;;;;8.49;100.00;100980.56;5029344;28;20124;-74
2022/12/20 10:22:08;;;;;;;;;;;;;;;8.49;100.00;100977.97;5039554;28;19923;-74
2022/12/20 10:24:37;;;;;;;;;;;;;;;8.50;100.00;100971.84;5037188;28;19943;-74
2022/12/20 10:27:11;;;;;;;;;;;;;;;8.49;100.00;100980.56;5035179;28;20240;-74
2022/12/20 10:29:36;;;;;;;;;;;;;;;8.50;100.00;100973.63;5041666;28;20012;-74
2022/12/20 10:32:08;;;;;;;;;;;;;;;8.51;100.00;100972.69;5039266;28;19917;-74
2022/12/20 10:34:34;;;;;;;;;;;;;;;8.51;100.00;100985.75;5037548;28;19984;-73
2022/12/20 10:37:13;;;;;;;;;;;;;;;8.51;100.00;100980.53;5039043;28;20115;-74
2022/12/20 10:39:43;;;;;;;;;;;;;;;8.51;100.00;100980.53;5035277;28;19917;-74
2022/12/20 10:42:42;;;;;;;;;;;;;;;8.51;100.00;100972.69;5047646;28;19914;-75
2022/12/20 10:45:30;;;;;;;;;;;;;;;8.52;100.00;100971.81;5038840;28;19912;-75
2022/12/20 10:47:58;;;;;;;;;;;;;;;8.51;100.00;100981.38;5024682;28;19948;-75
2022/12/20 10:50:24;;;;;;;;;;;;;;;8.51;100.00;100989.22;5036617;28;19962;-76
2022/12/20 10:53:03;;;;;;;;;;;;;;;8.52;100.00;100979.66;5031692;28;20165;-75
2022/12/20 10:55:35;;;;;;;;;;;;;;;8.53;100.00;100978.72;5037763;28;19929;-75
2022/12/20 10:58:03;;;;;;;;;;;;;;;8.53;100.00;100977.00;5029450;28;19928;-75
2022/12/20 11:00:29;;;;;;;;;;;;;;;8.53;100.00;100966.56;5039316;28;19921;-75
2022/12/20 11:03:14;;;;;;;;;;;;;;;8.53;100.00;100961.34;5022039;28;19947;-75
2022/12/20 11:05:39;;;;;;;;;;;;;;;8.54;100.00;100968.25;5042485;28;19973;-75
2022/12/20 11:08:15;;;;;;;;;;;;;;;8.55;100.00;100963.88;5051254;28;19928;-75
2022/12/20 11:10:40;;;;;;;;;;;;;;;8.55;100.00;100971.69;5037245;28;20204;-75
2022/12/20 11:13:05;;;;;;;;;;;;;;;8.56;100.00;100970.81;5040367;28;20191;-75
2022/12/20 11:15:32;;;;;;;;;;;;;;;8.55;100.00;100964.75;5034470;28;19933;-75
2022/12/20 11:18:30;;;;;;;;;;;;;;;8.57;100.00;100962.09;5042495;28;20220;-75
2022/12/20 11:21:15;;;;;;;;;;;;;;;8.58;100.00;100971.63;4999827;28;20104;-75
2022/12/20 11:23:43;;;;;;;;;;;;;;;8.58;100.00;100964.63;5024065;28;19932;-75
2022/12/20 11:26:24;;;;;;;;;;;;;;;8.58;100.00;100976.84;5027917;28;19928;-75
2022/12/20 11:29:01;;;;;;;;;;;;;;;8.57;100.00;100960.31;5030991;28;19921;-75
2022/12/20 11:31:40;;;;;;;;;;;;;;;8.58;100.00;100969.00;5028000;28;19993;-75
2022/12/20 11:34:17;;;;;;;;;;;;;;;8.59;100.00;100971.56;5028805;28;19963;-75
2022/12/20 11:36:45;;;;;;;;;;;;;;;8.59;100.00;100955.91;5026020;28;19917;-75
2022/12/20 11:39:14;;;;;;;;;;;;;;;8.58;100.00;100954.19;5041249;28;19921;-75
2022/12/20 11:41:57;;;;;;;;;;;;;;;8.59;100.00;100963.75;5044696;28;19932;-75
2022/12/20 11:44:23;;;;;;;;;;;;;;;8.60;100.00;100959.38;5030268;28;20039;-75
2022/12/20 11:46:54;;;;;;;;;;;;;;;8.61;100.00;100958.47;5029615;28;20205;-75
2022/12/20 11:49:39;;;;;;;;;;;;;;;8.61;100.00;100958.47;5023568;28;20216;-75
2022/12/20 11:52:13;;;;;;;;;;;;;;;8.61;100.00;100961.94;5024687;28;19928;-75
2022/12/20 11:54:45;;;;;;;;;;;;;;;8.63;100.00;100961.91;5026235;28;19926;-75
2022/12/20 11:57:24;;;;;;;;;;;;;;;8.62;100.00;100961.06;5034142;28;20112;-75
2022/12/20 11:59:51;;;;;;;;;;;;;;;8.62;100.00;100954.94;5041937;28;19925;-75
2022/12/20 12:02:21;;;;;;;;;;;;;;;8.62;100.00;100952.34;5026270;28;19978;-75
2022/12/20 12:04:54;;;;;;;;;;;;;;;8.62;100.00;100945.38;5024349;28;19921;-75
2022/12/20 12:07:22;;;;;;;;;;;;;;;8.62;100.00;100953.22;5024082;28;19921;-75
2022/12/20 12:09:55;;;;;;;;;;;;;;;8.62;100.00;100948.00;5029668;28;20221;-75
2022/12/20 12:12:26;;;;;;;;;;;;;;;8.62;100.00;100945.38;5022069;28;19913;-75
2022/12/20 12:14:55;;;;;;;;;;;;;;;8.63;100.00;100941.00;5024478;28;19931;-75
2022/12/20 12:17:26;;;;;;;;;;;;;;;8.64;100.00;100942.69;5025326;28;19987;-75
2022/12/20 12:19:54;;;;;;;;;;;;;;;8.63;100.00;100939.25;5025381;28;19936;-75
2022/12/20 12:22:24;;;;;;;;;;;;;;;8.64;100.00;100947.91;5023969;28;20267;-75
2022/12/20 12:24:53;;;;;;;;;;;;;;;8.64;100.00;100937.47;5023548;28;19944;-75
2022/12/20 12:27:23;;;;;;;;;;;;;;;8.65;100.00;100942.66;5026564;28;19928;-75
2022/12/20 12:29:49;;;;;;;;;;;;;;;8.64;100.00;100948.78;5029671;28;19944;-75
2022/12/20 12:32:24;;;;;;;;;;;;;;;8.65;100.00;100940.03;5022521;28;19925;-75
2022/12/20 12:34:56;;;;;;;;;;;;;;;8.64;100.00;100943.56;5024234;28;20175;-75
2022/12/20 12:37:39;;;;;;;;;;;;;;;8.64;100.00;100937.47;5026186;28;20008;-75
2022/12/20 12:40:43;;;;;;;;;;;;;;;8.65;100.00;100944.41;5026353;28;19949;-75
2022/12/20 12:43:20;;;;;;;;;;;;;;;8.64;100.00;100947.91;4984891;28;19921;-75
2022/12/20 12:45:47;;;;;;;;;;;;;;;8.64;100.00;100943.56;4981871;28;20024;-75
2022/12/20 12:48:12;;;;;;;;;;;;;;;8.64;100.00;100938.34;5003744;28;20225;-75
2022/12/20 12:50:42;;;;;;;;;;;;;;;8.64;100.00;100947.91;5009074;28;19936;-75